createdAt,value
2018-08-10T00:09:02.302Z,1000.19
2018-08-10T04:30:44.367Z,1004.65
2018-08-10T04:31:33.718Z,1004.72
2018-08-10T04:32:38.350Z,1004.69
2018-08-10T04:33:34.336Z,1004.75
2018-08-10T04:34:33.778Z,1004.72
2018-08-10T04:35:33.859Z,1004.78
2018-08-10T04:36:34.367Z,1004.75
2018-08-10T04:37:33.763Z,1004.78
2018-08-10T04:38:33.680Z,1004.82
2018-08-10T04:39:33.703Z,1004.77
2018-08-10T04:40:40.352Z,1004.82
2018-08-10T04:41:33.601Z,1004.89
2018-08-10T04:42:33.585Z,1004.89
2018-08-10T04:43:33.571Z,1004.95
2018-08-10T04:47:01.148Z,1004.97
2018-08-10T04:47:59.606Z,1004.92
2018-08-10T04:48:57.968Z,1005.05
2018-08-10T04:50:07.986Z,1005.06
2018-08-10T04:51:08.693Z,1005.03
2018-08-10T04:57:35.837Z,1005.08
2018-08-10T05:00:08.318Z,1005.21
2018-08-10T05:01:06.573Z,1005.33
2018-08-10T05:02:06.582Z,1005.33
2018-08-10T05:03:11.133Z,1005.38
2018-08-10T05:04:06.580Z,1005.34
2018-08-10T05:05:06.558Z,1005.44
2018-08-10T05:06:07.159Z,1005.40
2018-08-10T05:07:11.125Z,1005.39
2018-08-10T05:10:40.613Z,1005.51
2018-08-10T05:11:37.644Z,1005.50
2018-08-10T05:12:37.624Z,1005.56
2018-08-10T05:13:37.708Z,1005.52
2018-08-10T05:14:37.599Z,1005.55
2018-08-10T05:15:37.634Z,1005.51
2018-08-10T05:16:48.607Z,1005.55
2018-08-10T05:17:37.629Z,1005.62
2018-08-10T05:18:37.527Z,1005.62
2018-08-10T05:19:37.630Z,1005.64
2018-08-10T05:20:38.069Z,1005.69
2018-08-10T05:21:37.513Z,1005.65
2018-08-10T05:22:38.102Z,1005.77
2018-08-10T05:23:37.480Z,1005.69
2018-08-10T05:24:37.512Z,1005.79
2018-08-10T05:25:37.458Z,1005.73
2018-08-10T05:26:37.469Z,1005.75
2018-08-10T05:27:40.335Z,1005.77
2018-08-10T05:28:42.285Z,1005.76
2018-08-10T05:29:37.646Z,1005.84
2018-08-10T05:30:37.398Z,1005.85
2018-08-10T05:31:42.090Z,1005.85
2018-08-10T05:32:37.382Z,1005.93
2018-08-10T05:33:37.383Z,1005.97
2018-08-10T05:34:37.355Z,1005.92
2018-08-10T05:35:38.485Z,1005.92
2018-08-10T05:36:37.336Z,1006.01
2018-08-10T05:37:37.712Z,1005.99
2018-08-10T05:39:25.913Z,1006.01
2018-08-10T05:39:44.159Z,1006.02
2018-08-10T05:40:37.322Z,1006.08
2018-08-10T05:41:37.260Z,1006.09
2018-08-10T05:42:39.145Z,1006.13
2018-08-10T05:43:38.185Z,1006.14
2018-08-10T05:48:19.145Z,1006.27
2018-08-10T05:49:18.351Z,1006.31
2018-08-10T05:50:19.086Z,1006.28
2018-08-10T05:51:18.118Z,1006.32
2018-08-10T05:52:20.590Z,1006.32
2018-08-10T05:53:18.370Z,1006.32
2018-08-10T05:54:18.594Z,1006.32
2018-08-10T05:55:18.025Z,1006.35
2018-08-10T05:56:18.136Z,1006.36
2018-08-10T05:57:18.006Z,1006.35
2018-08-10T05:58:17.988Z,1006.39
2018-08-10T05:59:17.976Z,1006.38
2018-08-10T06:00:17.953Z,1006.41
2018-08-10T06:01:18.016Z,1006.42
2018-08-10T06:02:18.011Z,1006.45
2018-08-10T06:09:58.213Z,1006.60
2018-08-10T06:10:37.968Z,1006.65
2018-08-10T06:11:37.963Z,1006.65
2018-08-10T06:12:37.955Z,1006.66
2018-08-10T06:13:37.982Z,1006.73
2018-08-10T06:14:37.918Z,1006.73
2018-08-10T06:15:38.193Z,1006.73
2018-08-10T06:16:38.349Z,1006.82
2018-08-10T06:17:44.682Z,1006.83
2018-08-10T06:18:40.601Z,1006.85
2018-08-10T06:19:41.422Z,1006.82
2018-08-10T06:20:37.850Z,1006.90
2018-08-10T06:21:37.956Z,1006.85
2018-08-10T06:22:37.836Z,1006.99
2018-08-10T06:23:40.595Z,1006.95
2018-08-10T06:24:37.822Z,1006.97
2018-08-10T06:25:38.064Z,1006.98
2018-08-10T06:26:47.646Z,1007.01
2018-08-10T06:27:39.725Z,1007.00
2018-08-10T06:28:37.783Z,1007.00
2018-08-10T06:29:37.757Z,1007.01
2018-08-10T06:32:36.976Z,1006.98
2018-08-10T06:33:36.421Z,1007.03
2018-08-10T06:34:40.990Z,1006.98
2018-08-10T06:35:40.994Z,1007.00
2018-08-10T06:36:51.343Z,1007.02
2018-08-10T06:37:38.020Z,1007.00
2018-08-10T06:38:36.420Z,1007.04
2018-08-10T06:39:36.358Z,1007.08
2018-08-10T06:40:36.526Z,1007.08
2018-08-10T06:41:36.341Z,1007.09
2018-08-10T06:42:40.604Z,1007.11
2018-08-10T06:43:36.613Z,1007.12
2018-08-10T06:44:36.319Z,1007.14
2018-08-10T06:46:19.524Z,1007.14
2018-08-10T06:46:36.414Z,1007.18
2018-08-10T06:47:36.313Z,1007.18
2018-08-10T06:48:37.036Z,1007.16
2018-08-10T06:50:00.047Z,1007.23
2018-08-10T06:52:39.947Z,1007.27
2018-08-10T06:53:27.482Z,1007.29
2018-08-10T06:54:27.428Z,1007.29
2018-08-10T06:55:28.963Z,1007.28
2018-08-10T06:56:27.401Z,1007.35
2018-08-10T06:57:27.942Z,1007.30
2018-08-10T06:58:27.416Z,1007.34
2018-08-10T06:59:32.471Z,1007.30
2018-08-10T07:00:27.370Z,1007.41
2018-08-10T07:01:27.411Z,1007.37
2018-08-10T07:02:27.372Z,1007.33
2018-08-10T07:03:27.485Z,1007.36
2018-08-10T07:04:27.328Z,1007.31
2018-08-10T07:05:27.302Z,1007.38
2018-08-10T07:06:27.291Z,1007.34
2018-08-10T07:07:27.318Z,1007.35
2018-08-10T07:08:27.270Z,1007.38
2018-08-10T07:09:27.293Z,1007.35
2018-08-10T07:10:27.270Z,1007.30
2018-08-10T07:11:28.057Z,1007.32
2018-08-10T07:12:27.220Z,1007.32
2018-08-10T07:18:03.023Z,1007.45
2018-08-10T07:19:01.944Z,1007.45
2018-08-10T07:20:00.277Z,1007.44
2018-08-10T07:21:03.228Z,1007.45
2018-08-10T07:22:00.222Z,1007.53
2018-08-10T07:23:00.961Z,1007.59
2018-08-10T07:24:00.190Z,1007.56
2018-08-10T07:25:00.367Z,1007.58
2018-08-10T07:26:00.253Z,1007.56
2018-08-10T07:27:00.431Z,1007.55
2018-08-10T07:28:00.163Z,1007.60
2018-08-10T07:29:00.610Z,1007.59
2018-08-10T07:30:00.138Z,1007.60
2018-08-10T07:31:00.989Z,1007.63
2018-08-10T07:32:00.965Z,1007.61
2018-08-10T07:44:44.103Z,1007.74
2018-08-10T07:52:11.683Z,1007.73
2018-08-10T07:53:06.327Z,1007.69
2018-08-10T07:54:05.925Z,1007.76
2018-08-10T07:55:00.438Z,1007.75
2018-08-10T07:58:25.784Z,1007.77
2018-08-10T07:59:10.240Z,1007.80
2018-08-10T08:00:10.894Z,1007.78
2018-08-10T08:01:11.888Z,1007.82
2018-08-10T08:02:10.361Z,1007.82
2018-08-10T08:06:58.618Z,1007.90
2018-08-10T08:07:45.687Z,1007.90
2018-08-10T08:09:14.666Z,1007.88
2018-08-10T08:09:43.703Z,1007.89
2018-08-10T08:23:23.522Z,1007.96
2018-08-10T08:24:23.475Z,1008.01
2018-08-10T08:39:29.176Z,1008.06
2018-08-10T08:39:30.628Z,1008.09
2018-08-10T08:56:51.487Z,1008.15
2018-08-10T08:57:53.051Z,1008.12
2018-08-10T08:58:44.351Z,1008.09
2018-08-10T09:01:40.660Z,1008.08
2018-08-10T09:17:16.282Z,1008.25
2018-08-10T09:18:16.187Z,1008.18
2018-08-10T09:25:32.443Z,1008.14
2018-08-10T09:26:32.894Z,1008.22
2018-08-10T09:28:37.426Z,1008.22
2018-08-10T09:30:53.015Z,1008.17
2018-08-10T09:31:15.018Z,1008.17
2018-08-10T09:35:45.354Z,1008.35
2018-08-10T09:38:52.644Z,1008.40
2018-08-10T09:39:33.630Z,1008.44
2018-08-10T09:40:45.493Z,1008.48
2018-08-10T09:41:30.619Z,1008.44
2018-08-10T09:42:31.590Z,1008.49
2018-08-10T09:43:30.605Z,1008.34
2018-08-10T09:44:31.633Z,1008.33
2018-08-10T09:45:32.200Z,1008.36
2018-08-10T09:46:31.582Z,1008.24
2018-08-10T09:47:31.752Z,1008.26
2018-08-10T09:49:18.577Z,1008.47
2018-08-10T09:49:30.609Z,1008.31
2018-08-10T09:50:31.615Z,1008.46
2018-08-10T09:51:31.652Z,1008.45
2018-08-10T09:52:39.074Z,1008.39
2018-08-10T09:56:09.777Z,1008.53
2018-08-10T09:59:19.374Z,1008.40
2018-08-10T10:00:18.582Z,1008.10
2018-08-10T10:01:29.319Z,1008.47
2018-08-10T10:02:18.585Z,1008.22
2018-08-10T10:03:18.609Z,1008.24
2018-08-10T10:04:19.625Z,1008.19
2018-08-10T10:05:18.574Z,1008.30
2018-08-10T10:06:18.583Z,1008.45
2018-08-10T10:07:21.354Z,1008.43
2018-08-10T10:08:36.410Z,1008.45
2018-08-10T10:09:29.401Z,1008.48
2018-08-10T10:10:18.542Z,1008.36
2018-08-10T10:11:51.664Z,1008.40
2018-08-10T10:12:18.547Z,1008.49
2018-08-10T10:13:19.389Z,1008.49
2018-08-10T10:14:18.572Z,1008.48
2018-08-10T10:15:18.557Z,1008.57
2018-08-10T10:16:27.938Z,1008.53
2018-08-10T10:17:18.553Z,1008.57
2018-08-10T10:18:26.980Z,1008.56
2018-08-10T10:19:25.502Z,1008.53
2018-08-10T10:20:18.528Z,1008.47
2018-08-10T10:21:18.521Z,1008.54
2018-08-10T10:22:18.516Z,1008.36
2018-08-10T10:26:11.876Z,1008.61
2018-08-10T10:26:54.991Z,1008.53
2018-08-10T10:27:54.213Z,1008.58
2018-08-10T10:29:08.913Z,1008.51
2018-08-10T10:29:54.106Z,1008.29
2018-08-10T10:30:54.390Z,1008.35
2018-08-10T10:31:54.128Z,1008.41
2018-08-10T10:32:54.198Z,1008.16
2018-08-10T10:33:56.887Z,1008.31
2018-08-10T10:34:54.112Z,1008.22
2018-08-10T10:35:54.167Z,1008.20
2018-08-10T10:37:55.769Z,1008.39
2018-08-10T10:37:58.916Z,1008.44
2018-08-10T10:38:57.306Z,1008.11
2018-08-10T10:39:56.329Z,1008.13
2018-08-10T10:40:56.506Z,1008.18
2018-08-10T10:42:01.306Z,1008.17
2018-08-10T10:42:56.285Z,1008.13
2018-08-10T10:43:57.919Z,1008.10
2018-08-10T10:46:46.706Z,1008.15
2018-08-10T10:47:45.162Z,1008.11
2018-08-10T10:49:07.288Z,1008.40
2018-08-10T10:49:45.397Z,1008.80
2018-08-10T10:50:44.273Z,1008.22
2018-08-10T10:51:44.363Z,1008.10
2018-08-10T10:54:26.447Z,1008.40
2018-08-10T10:55:31.948Z,1008.15
2018-08-10T10:56:25.395Z,1008.17
2018-08-10T10:57:25.374Z,1008.16
2018-08-10T10:58:25.699Z,1008.15
2018-08-10T10:59:25.447Z,1008.12
2018-08-10T11:00:25.355Z,1008.24
2018-08-10T11:01:30.058Z,1008.16
2018-08-10T11:02:28.475Z,1008.11
2018-08-10T11:03:33.024Z,1008.12
2018-08-10T11:07:17.998Z,1008.02
2018-08-10T11:10:19.247Z,1008.14
2018-08-10T11:11:17.850Z,1008.12
2018-08-10T11:12:18.751Z,1008.09
2018-08-10T11:13:17.831Z,1008.24
2018-08-10T11:14:17.837Z,1008.13
2018-08-10T11:15:18.762Z,1008.15
2018-08-10T11:16:17.828Z,1008.30
2018-08-10T11:17:50.205Z,1008.15
2018-08-10T11:18:58.794Z,1008.19
2018-08-10T11:19:17.788Z,1008.27
2018-08-10T11:20:32.293Z,1008.26
2018-08-10T11:21:19.302Z,1008.23
2018-08-10T11:22:17.887Z,1008.25
2018-08-10T11:23:19.624Z,1008.27
2018-08-10T11:32:49.238Z,1008.27
2018-08-10T11:33:51.720Z,1008.29
2018-08-10T11:34:49.779Z,1008.24
2018-08-10T11:36:01.814Z,1008.24
2018-08-10T11:40:56.141Z,1008.21
2018-08-10T11:45:16.328Z,1008.27
2018-08-10T11:45:53.631Z,1008.24
2018-08-10T11:47:07.666Z,1008.27
2018-08-10T11:47:53.682Z,1008.31
2018-08-10T11:52:17.814Z,1008.33
2018-08-10T11:53:19.688Z,1008.54
2018-08-10T12:01:07.025Z,1008.19
2018-08-10T12:01:25.497Z,1008.22
2018-08-10T12:02:23.111Z,1008.18
2018-08-10T12:04:03.402Z,1008.17
2018-08-10T12:04:24.530Z,1008.14
2018-08-10T12:07:58.213Z,1008.03
2018-08-10T12:24:04.665Z,1007.99
2018-08-10T12:25:04.920Z,1007.97
2018-08-10T12:26:04.099Z,1008.04
2018-08-10T12:27:04.645Z,1007.90
2018-08-10T12:28:05.123Z,1007.97
2018-08-10T12:29:05.167Z,1007.97
2018-08-10T12:30:04.968Z,1007.97
2018-08-10T12:31:05.431Z,1008.04
2018-08-10T12:32:04.709Z,1007.95
2018-08-10T12:33:04.074Z,1007.94
2018-08-10T12:36:04.715Z,1007.94
2018-08-10T12:36:47.431Z,1007.95
2018-08-10T12:38:39.442Z,1007.92
2018-08-10T12:38:47.404Z,1007.92
2018-08-10T12:41:35.434Z,1008.00
2018-08-10T12:42:34.895Z,1007.97
2018-08-10T12:43:33.885Z,1007.96
2018-08-10T12:44:33.221Z,1008.05
2018-08-10T12:45:33.448Z,1007.98
2018-08-10T12:50:05.327Z,1007.99
2018-08-10T12:51:05.948Z,1008.05
2018-08-10T12:52:15.933Z,1008.02
2018-08-10T12:54:32.296Z,1007.97
2018-08-10T12:54:50.566Z,1007.97
2018-08-10T12:55:34.947Z,1007.93
2018-08-10T12:56:35.708Z,1007.92
2018-08-10T12:57:32.808Z,1008.01
2018-08-10T12:58:32.974Z,1008.02
2018-08-10T12:59:33.482Z,1008.11
2018-08-10T13:00:33.807Z,1008.04
2018-08-10T13:01:32.977Z,1008.11
2018-08-10T13:02:33.185Z,1008.18
2018-08-10T13:03:33.507Z,1008.28
2018-08-10T13:04:32.779Z,1008.14
2018-08-10T13:07:48.733Z,1007.99
2018-08-10T13:08:23.752Z,1008.10
2018-08-10T13:09:23.756Z,1008.06
2018-08-10T13:19:40.013Z,1008.05
2018-08-10T13:20:32.057Z,1008.11
2018-08-10T13:21:32.492Z,1008.28
2018-08-10T13:22:34.023Z,1008.14
2018-08-10T13:23:32.050Z,1008.07
2018-08-10T13:24:31.349Z,1008.06
2018-08-10T13:25:31.398Z,1008.02
2018-08-10T13:26:32.069Z,1008.10
2018-08-10T13:27:31.380Z,1008.13
2018-08-10T13:28:34.070Z,1008.08
2018-08-10T13:29:32.033Z,1008.13
2018-08-10T13:30:31.302Z,1008.05
2018-08-10T13:31:31.320Z,1009.22
2018-08-10T13:32:31.286Z,1008.05
2018-08-10T13:33:31.294Z,1008.03
2018-08-10T13:34:31.266Z,1008.09
2018-08-10T13:35:32.095Z,1008.09
2018-08-10T13:36:31.281Z,1008.11
2018-08-10T13:39:51.966Z,1008.14
2018-08-10T13:44:51.846Z,1008.73
2018-08-10T13:45:54.302Z,1008.02
2018-08-10T13:46:58.303Z,1008.07
2018-08-10T13:47:51.555Z,1008.36
2018-08-10T13:48:52.685Z,1008.13
2018-08-10T13:49:52.486Z,1008.15
2018-08-10T13:50:54.239Z,1008.40
2018-08-10T13:51:52.346Z,1008.53
2018-08-10T13:52:51.869Z,1008.19
2018-08-10T13:54:06.318Z,1008.17
2018-08-10T13:54:53.301Z,1008.26
2018-08-10T13:55:53.329Z,1008.25
2018-08-10T13:56:51.459Z,1008.10
2018-08-10T13:57:51.455Z,1008.06
2018-08-10T13:58:51.455Z,1008.29
2018-08-10T13:59:51.427Z,1008.57
2018-08-10T14:00:52.331Z,1008.11
2018-08-10T14:01:51.479Z,1008.29
2018-08-10T14:02:52.324Z,1008.33
2018-08-10T14:03:56.337Z,1008.33
2018-08-10T14:04:52.386Z,1008.38
2018-08-10T14:05:52.389Z,1008.21
2018-08-10T14:06:52.402Z,1008.75
2018-08-10T14:07:52.358Z,1008.28
2018-08-10T14:08:51.416Z,1008.10
2018-08-10T14:09:54.330Z,1008.15
2018-08-10T14:10:51.638Z,1008.02
2018-08-10T14:11:57.171Z,1008.14
2018-08-10T14:13:17.381Z,1008.16
2018-08-10T14:13:52.410Z,1008.00
2018-08-10T14:14:54.354Z,1007.91
2018-08-10T14:18:13.068Z,1007.96
2018-08-10T14:19:11.537Z,1007.92
2018-08-10T14:20:11.502Z,1007.92
2018-08-10T14:21:11.488Z,1007.86
2018-08-10T14:22:22.302Z,1007.91
2018-08-10T14:23:11.587Z,1007.92
2018-08-10T14:24:12.490Z,1007.89
2018-08-10T14:25:11.493Z,1008.05
2018-08-10T14:26:12.602Z,1007.96
2018-08-10T14:27:11.459Z,1008.29
2018-08-10T14:28:11.479Z,1008.28
2018-08-10T14:29:11.466Z,1007.95
2018-08-10T14:30:11.528Z,1007.86
2018-08-10T14:31:11.438Z,1008.50
2018-08-10T14:32:11.434Z,1008.29
2018-08-10T14:33:11.425Z,1007.88
2018-08-10T14:34:12.558Z,1008.45
2018-08-10T14:35:12.055Z,1008.05
2018-08-10T14:36:11.661Z,1007.91
2018-08-10T14:37:13.059Z,1007.95
2018-08-10T14:38:20.575Z,1007.77
2018-08-10T14:39:12.251Z,1007.82
2018-08-10T14:40:28.112Z,1008.07
2018-08-10T14:41:11.443Z,1008.05
2018-08-10T14:42:12.601Z,1007.86
2018-08-10T14:43:11.502Z,1007.92
2018-08-10T14:44:11.426Z,1007.99
2018-08-10T14:45:11.382Z,1007.86
2018-08-10T14:46:11.376Z,1008.01
2018-08-10T14:47:11.431Z,1008.08
2018-08-10T14:48:12.164Z,1007.98
2018-08-10T14:49:12.566Z,1007.80
2018-08-10T14:50:11.428Z,1007.92
2018-08-10T14:51:11.360Z,1007.63
2018-08-10T14:52:11.344Z,1007.67
2018-08-10T14:53:11.444Z,1007.70
2018-08-10T14:54:15.868Z,1007.83
2018-08-10T14:59:13.778Z,1007.67
2018-08-10T15:00:18.762Z,1007.94
2018-08-10T15:01:15.584Z,1007.69
2018-08-10T15:02:14.409Z,1007.69
2018-08-10T15:03:13.759Z,1007.67
2018-08-10T15:06:38.629Z,1007.57
2018-08-10T15:07:51.698Z,1007.59
2018-08-10T15:08:50.444Z,1007.58
2018-08-10T15:15:49.011Z,1008.37
2018-08-10T15:16:48.149Z,1008.22
2018-08-10T15:17:48.954Z,1008.26
2018-08-10T15:18:48.894Z,1007.60
2018-08-10T15:29:04.476Z,1007.58
2018-08-10T15:38:51.052Z,1007.38
2018-08-10T15:39:39.500Z,1007.33
2018-08-10T15:43:29.579Z,1007.42
2018-08-10T15:47:48.048Z,1007.35
2018-08-10T15:55:13.121Z,1007.40
2018-08-10T15:55:52.144Z,1007.39
2018-08-10T15:56:49.744Z,1007.35
2018-08-10T16:04:59.574Z,1007.33
